Time;durP1;ratioP1;P1;durP2;ratioP2;P2;SDS_P1;SDS_P2;PMS_P1;PMS_P2;Temp;Humidity;BMP_temperature;BMP_pressure;BME280_temperature;BME280_humidity;BME280_pressure;Samples;Min_cycle;Max_cycle;Signal;HPM_P1;HPM_P2
2022/02/16 00:01:46;;;;;;;0.00;0.00;;;;;;;4.92;100.00;100100.53;10477559;28;20261;-67
2022/02/16 00:06:46;;;;;;;0.00;0.00;;;;;;;4.91;100.00;100100.66;10490348;28;20394;-68
2022/02/16 00:11:47;;;;;;;0.00;0.00;;;;;;;4.90;100.00;100099.00;10490473;28;20614;-67
2022/02/16 00:16:47;;;;;;;0.00;0.00;;;;;;;4.86;100.00;100109.00;10450280;28;20512;-67
2022/02/16 00:21:48;;;;;;;0.00;0.00;;;;;;;4.85;100.00;100088.84;10449288;28;20024;-67
2022/02/16 00:26:48;;;;;;;0.00;0.00;;;;;;;4.89;100.00;100094.72;10457336;28;20013;-67
2022/02/16 00:31:49;;;;;;;0.00;0.00;;;;;;;4.84;100.00;100084.56;10462441;28;20029;-67
2022/02/16 00:36:50;;;;;;;0.00;0.00;;;;;;;4.82;100.00;100085.66;10488305;28;20299;-68
2022/02/16 00:41:50;;;;;;;0.00;0.00;;;;;;;4.82;100.00;100067.19;10467903;28;20024;-67
2022/02/16 00:46:51;;;;;;;0.00;0.00;;;;;;;4.79;100.00;100068.31;10478093;28;20087;-67
2022/02/16 00:51:52;;;;;;;0.00;0.00;;;;;;;4.79;100.00;100072.75;10463667;28;20057;-67
2022/02/16 00:56:52;;;;;;;0.00;0.00;;;;;;;4.78;100.00;100071.09;10496220;28;20099;-67
2022/02/16 01:01:53;;;;;;;0.00;0.00;;;;;;;4.79;100.00;100065.66;10472824;28;20479;-67
2022/02/16 01:06:53;;;;;;;0.00;0.00;;;;;;;4.79;100.00;100054.28;10455739;28;20298;-67
2022/02/16 01:11:54;;;;;;;0.00;0.00;;;;;;;4.76;100.00;100058.88;10473846;28;20027;-67
2022/02/16 01:16:54;;;;;;;0.00;0.00;;;;;;;4.76;100.00;100050.13;10470595;28;20017;-67
2022/02/16 01:21:55;;;;;;;0.00;0.00;;;;;;;4.77;100.00;100041.25;10496770;28;20085;-67
2022/02/16 01:26:55;;;;;;;0.00;0.00;;;;;;;4.78;100.00;100040.28;10496175;28;20027;-67
2022/02/16 01:31:56;;;;;;;0.00;0.00;;;;;;;4.76;100.00;100034.28;10496415;28;20043;-67
2022/02/16 01:36:56;;;;;;;0.00;0.00;;;;;;;4.78;100.00;100031.53;10495857;28;20066;-67
2022/02/16 01:41:56;;;;;;;0.00;0.00;;;;;;;4.78;100.00;100024.44;10495741;28;20081;-67
2022/02/16 01:47:04;;;;;;;0.00;0.00;;;;;;;4.81;100.00;100021.53;10459660;28;20066;-67
2022/02/16 01:52:06;;;;;;;0.00;0.00;;;;;;;4.83;100.00;100014.31;10494346;28;20266;-67
2022/02/16 01:57:07;;;;;;;0.00;0.00;;;;;;;4.87;100.00;100004.28;10495321;28;20035;-67
2022/02/16 02:02:07;;;;;;;0.00;0.00;;;;;;;4.91;100.00;99998.56;10494788;28;20025;-67
2022/02/16 02:07:08;;;;;;;0.00;0.00;;;;;;;4.94;100.00;99995.63;10494270;28;20073;-68
2022/02/16 02:12:08;;;;;;;0.00;0.00;;;;;;;4.94;100.00;99978.97;10479760;28;20126;-68
2022/02/16 02:17:09;;;;;;;0.00;0.00;;;;;;;4.94;100.00;99974.53;10450657;28;20021;-68
2022/02/16 02:22:09;;;;;;;0.00;0.00;;;;;;;4.97;100.00;99957.56;10453167;28;20029;-68
2022/02/16 02:27:09;;;;;;;0.00;0.00;;;;;;;4.98;100.00;99968.00;10464820;28;20112;-68
2022/02/16 02:32:14;;;;;;;0.00;0.00;;;;;;;5.02;100.00;99952.69;10494120;28;20028;-67
2022/02/16 02:37:14;;;;;;;0.00;0.00;;;;;;;5.04;100.00;99936.75;10493492;28;20019;-67
2022/02/16 02:42:15;;;;;;;0.00;0.00;;;;;;;5.07;100.00;99937.28;10492487;28;20017;-68
2022/02/16 02:47:15;;;;;;;0.00;0.00;;;;;;;5.09;100.00;99916.00;10470906;28;20502;-67
2022/02/16 02:52:15;;;;;;;0.00;0.00;;;;;;;5.12;100.00;99915.69;10492565;28;20490;-68
2022/02/16 02:57:16;;;;;;;0.00;0.00;;;;;;;5.10;100.00;99912.41;10492502;28;20749;-68
2022/02/16 03:02:17;;;;;;;0.00;0.00;;;;;;;5.09;100.00;99919.50;10471902;28;20037;-67
2022/02/16 03:07:17;;;;;;;0.00;0.00;;;;;;;5.13;100.00;99925.31;10452279;28;20411;-68
2022/02/16 03:12:17;;;;;;;0.00;0.00;;;;;;;5.14;100.00;99934.88;10473835;28;20025;-67
2022/02/16 03:17:18;;;;;;;0.00;0.00;;;;;;;5.14;100.00;99930.41;10450735;28;20025;-68
2022/02/16 03:22:21;;;;;;;0.00;0.00;;;;;;;5.19;100.00;99924.72;10450737;28;20032;-67
2022/02/16 03:27:22;;;;;;;0.00;0.00;;;;;;;5.24;100.00;99911.09;10450317;28;20063;-68
2022/02/16 03:32:22;;;;;;;0.00;0.00;;;;;;;5.27;100.00;99906.34;10450858;28;20083;-67
2022/02/16 03:37:23;;;;;;;0.00;0.00;;;;;;;5.29;100.00;99906.16;10458217;28;20021;-67
2022/02/16 03:42:23;;;;;;;0.00;0.00;;;;;;;5.30;100.00;99894.66;10487889;28;20467;-68
2022/02/16 03:47:23;;;;;;;0.00;0.00;;;;;;;5.31;100.00;99893.66;10455532;28;20482;-67
2022/02/16 03:52:24;;;;;;;0.00;0.00;;;;;;;5.30;100.00;99890.19;10449809;28;20040;-67
2022/02/16 03:57:24;;;;;;;0.00;0.00;;;;;;;5.28;100.00;99896.59;10449396;28;20060;-67
2022/02/16 04:02:24;;;;;;;0.00;0.00;;;;;;;5.32;100.00;99888.22;10449685;28;20031;-68
2022/02/16 04:07:25;;;;;;;0.00;0.00;;;;;;;5.33;100.00;99881.16;10449492;28;20069;-67
2022/02/16 04:12:26;;;;;;;0.00;0.00;;;;;;;5.34;100.00;99870.41;10445231;28;20299;-68
2022/02/16 04:17:27;;;;;;;0.00;0.00;;;;;;;5.35;100.00;99864.19;10459724;28;20056;-68
2022/02/16 04:22:27;;;;;;;0.00;0.00;;;;;;;5.36;100.00;99862.38;10457602;28;20031;-68
2022/02/16 04:27:27;;;;;;;0.00;0.00;;;;;;;5.37;100.00;99842.88;10457276;28;20021;-68
2022/02/16 04:32:28;;;;;;;0.00;0.00;;;;;;;5.38;100.00;99834.84;10457183;28;20021;-67
2022/02/16 04:37:28;;;;;;;0.00;0.00;;;;;;;5.38;100.00;99832.19;10457837;28;20005;-67
2022/02/16 04:42:28;;;;;;;0.00;0.00;;;;;;;5.43;100.00;99842.28;10458106;28;20104;-67
2022/02/16 04:47:29;;;;;;;0.00;0.00;;;;;;;5.46;100.00;99823.50;10456140;28;20274;-67
2022/02/16 04:52:35;;;;;;;0.00;0.00;;;;;;;5.49;100.00;99817.09;10447976;28;20467;-67
2022/02/16 04:57:37;;;;;;;0.00;0.00;;;;;;;5.49;100.00;99794.13;10456318;28;20067;-67
2022/02/16 05:02:38;;;;;;;0.00;0.00;;;;;;;5.49;100.00;99777.47;10454472;28;20440;-67
2022/02/16 05:07:38;;;;;;;0.05;0.05;;;;;;;5.45;100.00;99747.91;10430370;22;20132;-68
2022/02/16 05:12:41;;;;;;;0.00;0.00;;;;;;;5.53;100.00;99737.41;10431790;28;20053;-68
2022/02/16 05:17:41;;;;;;;0.00;0.00;;;;;;;5.55;100.00;99724.03;10453923;28;20014;-68
2022/02/16 05:22:41;;;;;;;0.00;0.00;;;;;;;5.56;100.00;99715.97;10455346;28;20024;-68
2022/02/16 05:27:41;;;;;;;0.00;0.00;;;;;;;5.58;100.00;99697.31;10455210;28;20029;-68
2022/02/16 05:32:42;;;;;;;0.00;0.00;;;;;;;5.60;100.00;99680.31;10444046;28;20060;-68
2022/02/16 05:37:43;;;;;;;0.00;0.00;;;;;;;5.63;100.00;99666.78;10423154;28;20300;-68
2022/02/16 05:42:43;;;;;;;0.00;0.00;;;;;;;5.67;100.00;99659.38;10431006;28;20023;-68
2022/02/16 05:47:43;;;;;;;0.00;0.00;;;;;;;5.69;100.00;99641.56;10445165;28;20017;-68
2022/02/16 05:52:45;;;;;;;0.00;0.00;;;;;;;5.70;100.00;99623.91;10447325;28;20021;-68
2022/02/16 05:57:45;;;;;;;0.00;0.00;;;;;;;5.70;100.00;99626.53;10446221;28;20260;-67
2022/02/16 06:02:46;;;;;;;0.00;0.00;;;;;;;5.72;100.00;99612.19;10449369;28;20022;-68
2022/02/16 06:07:46;;;;;;;0.00;0.00;;;;;;;5.72;100.00;99596.34;10440420;28;20026;-69
2022/02/16 06:12:46;;;;;;;0.00;0.00;;;;;;;5.71;100.00;99599.16;10448547;28;20028;-69
2022/02/16 06:17:47;;;;;;;0.00;0.00;;;;;;;5.72;100.00;99600.78;10440663;28;20056;-69
2022/02/16 06:22:47;;;;;;;0.00;0.00;;;;;;;5.74;100.00;99585.63;10449045;28;20017;-69
2022/02/16 06:27:47;;;;;;;0.00;0.00;;;;;;;5.76;100.00;99560.69;10446736;28;20079;-69
2022/02/16 06:32:48;;;;;;;0.00;0.00;;;;;;;5.76;100.00;99536.91;10448934;28;20623;-69
2022/02/16 06:37:48;;;;;;;0.00;0.00;;;;;;;5.78;100.00;99505.03;10421137;28;20967;-69
2022/02/16 06:42:48;;;;;;;0.00;0.00;;;;;;;5.80;100.00;99487.22;10424306;28;20291;-69
2022/02/16 06:47:49;;;;;;;0.00;0.00;;;;;;;5.80;100.00;99479.28;10444600;28;20020;-69
2022/02/16 06:52:49;;;;;;;0.00;0.00;;;;;;;5.80;100.00;99461.63;10448474;28;20214;-69
2022/02/16 06:57:49;;;;;;;0.00;0.00;;;;;;;5.82;100.00;99459.66;10448196;28;20021;-68
2022/02/16 07:02:50;;;;;;;0.00;0.00;;;;;;;5.83;100.00;99447.25;10447358;28;20333;-69
2022/02/16 07:07:50;;;;;;;0.00;0.00;;;;;;;5.84;100.00;99438.34;10447478;28;20035;-68
2022/02/16 07:12:51;;;;;;;0.00;0.00;;;;;;;5.82;100.00;99425.28;10417857;28;20029;-69
2022/02/16 07:17:52;;;;;;;0.00;0.00;;;;;;;5.83;100.00;99416.38;10440163;28;20013;-68
2022/02/16 07:22:53;;;;;;;0.00;0.00;;;;;;;5.83;100.00;99397.88;10445136;28;20476;-69
2022/02/16 07:27:53;;;;;;;0.00;0.00;;;;;;;5.85;100.00;99379.22;10434791;28;20475;-69
2022/02/16 07:32:53;;;;;;;0.00;0.00;;;;;;;5.88;100.00;99365.69;10445203;28;20029;-69
2022/02/16 07:37:55;;;;;;;0.00;0.00;;;;;;;5.91;100.00;99349.50;10420326;28;20018;-69
2022/02/16 07:42:55;;;;;;;0.00;0.00;;;;;;;5.96;100.00;99335.81;10417066;28;20029;-69
2022/02/16 07:47:56;;;;;;;0.00;0.00;;;;;;;6.05;100.00;99316.28;10440846;28;20021;-69
2022/02/16 07:52:59;;;;;;;0.00;0.00;;;;;;;6.12;100.00;99301.44;10443732;28;20047;-69
2022/02/16 07:58:01;;;;;;;0.00;0.00;;;;;;;6.18;100.00;99286.72;10443542;28;20032;-69
2022/02/16 08:03:01;;;;;;;0.00;0.00;;;;;;;6.26;100.00;99270.84;10444023;28;20021;-68
2022/02/16 08:08:02;;;;;;;0.00;0.00;;;;;;;6.34;100.00;99253.13;10426663;28;20021;-69
2022/02/16 08:13:03;;;;;;;0.00;0.00;;;;;;;6.39;100.00;99242.03;10433025;28;20028;-68
2022/02/16 08:18:03;;;;;;;0.00;0.00;;;;;;;6.41;100.00;99215.41;10437744;28;20100;-68
2022/02/16 08:23:04;;;;;;;0.00;0.00;;;;;;;6.46;100.00;99205.97;10444484;28;20259;-69
2022/02/16 08:28:07;;;;;;;0.00;0.00;;;;;;;6.50;100.00;99188.75;10441685;28;20049;-69
2022/02/16 08:33:11;;;;;;;0.00;0.00;;;;;;;6.54;100.00;99182.13;10444568;28;20404;-69
2022/02/16 08:38:11;;;;;;;0.00;0.00;;;;;;;6.61;100.00;99171.69;10427636;28;21136;-69
2022/02/16 08:43:12;;;;;;;0.00;0.00;;;;;;;6.69;100.00;99139.03;10425406;28;20025;-69
2022/02/16 08:48:13;;;;;;;0.00;0.00;;;;;;;6.72;100.00;99114.88;10443879;28;20025;-69
2022/02/16 08:53:13;;;;;;;0.00;0.00;;;;;;;6.78;100.00;99104.44;10443829;28;20029;-69
2022/02/16 08:58:14;;;;;;;0.00;0.00;;;;;;;6.84;100.00;99094.13;10437584;28;20051;-69
2022/02/16 09:03:14;;;;;;;0.00;0.00;;;;;;;6.88;100.00;99063.66;10441835;28;20149;-70
2022/02/16 09:08:15;;;;;;;0.00;0.00;;;;;;;6.93;100.00;99050.72;10448116;28;20051;-69
2022/02/16 09:13:16;;;;;;;0.00;0.00;;;;;;;6.97;100.00;99038.75;10441596;28;20399;-69
2022/02/16 09:18:17;;;;;;;0.00;0.00;;;;;;;7.01;100.00;98995.88;10440359;28;20726;-69
2022/02/16 09:23:17;;;;;;;0.10;0.10;;;;;;;7.00;100.00;99006.63;10422893;28;20041;-70
2022/02/16 09:28:18;;;;;;;0.00;0.00;;;;;;;7.01;100.00;98990.59;10411163;28;20017;-70
2022/02/16 09:33:19;;;;;;;0.10;0.10;;;;;;;7.05;100.00;98967.22;10415250;28;20318;-69
2022/02/16 09:38:19;;;;;;;0.00;0.00;;;;;;;7.06;100.00;98947.66;10414891;28;20018;-69
2022/02/16 09:43:22;;;;;;;0.10;0.10;;;;;;;7.13;100.00;98947.78;10413263;28;20504;-69
2022/02/16 09:48:24;;;;;;;0.00;0.00;;;;;;;7.18;100.00;98946.19;10414501;28;20017;-69
2022/02/16 09:53:24;;;;;;;0.00;0.00;;;;;;;7.23;100.00;98930.59;10414528;28;20033;-69
2022/02/16 09:58:24;;;;;;;0.00;0.00;;;;;;;7.33;100.00;98926.81;10396624;28;20432;-69
2022/02/16 10:03:25;;;;;;;0.03;0.03;;;;;;;7.45;100.00;98909.47;10414218;28;20500;-69
2022/02/16 10:08:46;;;;;;;0.10;0.10;;;;;;;7.58;100.00;98903.50;10413624;28;20129;-69
2022/02/16 10:13:46;;;;;;;0.00;0.00;;;;;;;7.68;100.00;98904.03;10394503;28;20072;-69
2022/02/16 10:19:00;;;;;;;0.00;0.00;;;;;;;7.80;100.00;98877.84;10413514;28;20048;-69
2022/02/16 10:24:00;;;;;;;0.00;0.00;;;;;;;7.89;100.00;98885.50;10413282;28;20260;-69
2022/02/16 10:29:00;;;;;;;0.00;0.00;;;;;;;7.92;100.00;98887.75;10413084;28;20022;-69
2022/02/16 10:34:02;;;;;;;0.00;0.00;;;;;;;7.98;100.00;98891.50;10412804;28;20033;-69
2022/02/16 10:39:06;;;;;;;0.00;0.00;;;;;;;8.06;100.00;98895.84;10412592;28;20024;-69
2022/02/16 10:44:24;;;;;;;0.00;0.00;;;;;;;8.20;100.00;98870.25;10412064;28;20025;-69
2022/02/16 10:49:26;;;;;;;0.10;0.10;;;;;;;8.34;100.00;98861.38;10412215;28;20060;-69
2022/02/16 10:54:26;;;;;;;0.00;0.00;;;;;;;8.43;100.00;98864.75;10412273;28;20512;-69
2022/02/16 10:59:27;;;;;;;0.00;0.00;;;;;;;8.46;100.00;98864.34;10411787;28;20025;-69
2022/02/16 11:04:27;;;;;;;0.00;0.00;;;;;;;8.58;100.00;98841.56;10411956;28;20477;-69
2022/02/16 11:09:33;;;;;;;0.00;0.00;;;;;;;8.70;100.00;98836.56;10417885;22;20045;-68
2022/02/16 11:14:35;;;;;;;0.00;0.00;;;;;;;8.72;100.00;98830.03;10419584;28;20055;-68
2022/02/16 11:19:36;;;;;;;0.10;0.10;;;;;;;8.74;100.00;98843.13;10452655;28;20402;-68
2022/02/16 11:24:41;;;;;;;0.00;0.00;;;;;;;8.75;100.00;98824.31;10452081;28;20031;-68
2022/02/16 11:29:41;;;;;;;0.00;0.00;;;;;;;8.81;100.00;98843.94;10450708;28;20016;-68
2022/02/16 11:34:43;;;;;;;0.10;0.10;;;;;;;8.94;100.00;98833.41;10451825;28;20095;-68
2022/02/16 11:39:49;;;;;;;0.00;0.00;;;;;;;9.02;100.00;98851.84;10449798;28;20413;-68
2022/02/16 11:44:49;;;;;;;0.00;0.00;;;;;;;9.13;100.00;98847.78;10410129;28;20033;-68
2022/02/16 11:49:50;;;;;;;0.10;0.10;;;;;;;9.27;100.00;98846.00;10410037;28;20594;-68
2022/02/16 11:54:55;;;;;;;0.10;0.10;;;;;;;9.35;100.00;98837.88;10409830;28;20025;-68
2022/02/16 12:00:20;;;;;;;0.00;0.00;;;;;;;9.41;100.00;98853.00;10408761;28;20033;-68
2022/02/16 12:05:42;;;;;;;0.00;0.00;;;;;;;9.46;100.00;98892.28;10392064;28;20420;-68
2022/02/16 12:10:48;;;;;;;0.00;0.00;;;;;;;9.50;100.00;98877.56;10395486;28;20036;-68
2022/02/16 12:15:54;;;;;;;0.10;0.10;;;;;;;9.61;100.00;98890.28;10413676;28;20029;-69
2022/02/16 12:20:56;;;;;;;0.00;0.00;;;;;;;9.68;100.00;98898.25;10409136;28;20029;-69
2022/02/16 12:26:08;;;;;;;0.10;0.10;;;;;;;9.71;100.00;98904.00;10409160;28;20017;-69
2022/02/16 12:31:12;;;;;;;0.00;0.00;;;;;;;9.76;100.00;98892.75;10416424;28;20044;-69
2022/02/16 12:36:12;;;;;;;0.10;0.10;;;;;;;9.76;100.00;98892.75;10408298;28;20468;-68
2022/02/16 12:41:16;;;;;;;0.10;0.10;;;;;;;9.80;100.00;98893.19;10426669;28;20066;-68
2022/02/16 12:46:17;;;;;;;0.10;0.10;;;;;;;9.86;100.00;98917.16;10422633;28;20415;-68
2022/02/16 12:51:32;;;;;;;0.10;0.10;;;;;;;9.95;100.00;98915.94;10415576;28;20167;-68
2022/02/16 12:56:38;;;;;;;0.00;0.00;;;;;;;10.08;100.00;98896.50;10415403;28;20380;-68
2022/02/16 13:01:41;;;;;;;0.10;0.10;;;;;;;10.11;100.00;98895.28;10415298;28;20017;-69
2022/02/16 13:06:47;;;;;;;0.08;0.08;;;;;;;10.16;100.00;98867.03;10414750;28;20033;-68
2022/02/16 13:11:51;;;;;;;0.10;0.10;;;;;;;10.23;100.00;98877.69;10418394;28;20024;-68
2022/02/16 13:17:27;;;;;;;0.10;0.10;;;;;;;10.33;100.00;98872.00;10426176;28;20017;-69
2022/02/16 13:22:28;;;;;;;0.10;0.10;;;;;;;10.39;100.00;98864.00;10408449;28;20383;-68
2022/02/16 13:27:48;;;;;;;0.10;0.10;;;;;;;10.45;100.00;98901.47;10414130;28;20022;-69
2022/02/16 13:32:52;;;;;;;0.10;0.10;;;;;;;10.41;100.00;98906.38;10411635;28;20279;-69
2022/02/16 13:37:57;;;;;;;0.07;0.07;;;;;;;10.37;100.00;98876.69;10413825;28;20468;-69
2022/02/16 13:43:03;;;;;;;0.00;0.00;;;;;;;10.40;100.00;98870.13;10432888;28;20029;-69
2022/02/16 13:48:05;;;;;;;0.10;0.10;;;;;;;10.43;100.00;98872.38;10426093;28;20104;-69
2022/02/16 13:53:08;;;;;;;0.10;0.10;;;;;;;10.49;100.00;98884.88;10413464;28;20029;-69
2022/02/16 13:58:08;;;;;;;0.08;0.08;;;;;;;10.61;100.00;98896.53;10410152;28;20021;-69
2022/02/16 14:03:11;;;;;;;0.10;0.10;;;;;;;10.62;100.00;98886.72;10412985;28;20028;-69
2022/02/16 14:08:11;;;;;;;0.10;0.10;;;;;;;10.69;100.00;98902.69;10411979;28;20431;-69
2022/02/16 14:13:13;;;;;;;0.00;0.00;;;;;;;10.76;100.00;98867.03;10427074;28;20028;-69
2022/02/16 14:18:13;;;;;;;0.10;0.10;;;;;;;10.83;100.00;98898.97;10452586;28;20388;-69
2022/02/16 14:23:14;;;;;;;0.00;0.00;;;;;;;10.81;100.00;98890.38;10410634;28;20028;-69
2022/02/16 14:28:14;;;;;;;0.10;0.10;;;;;;;10.78;100.00;98880.13;10410821;28;20027;-70
2022/02/16 14:33:14;;;;;;;0.10;0.10;;;;;;;10.74;100.00;98837.13;10445223;28;20032;-69
2022/02/16 14:38:15;;;;;;;0.03;0.03;;;;;;;10.69;100.00;98836.13;10452304;28;20020;-69
2022/02/16 14:43:15;;;;;;;0.10;0.10;;;;;;;10.66;100.00;98829.34;10434027;28;20028;-69
2022/02/16 14:48:15;;;;;;;0.10;0.10;;;;;;;10.69;100.00;98804.97;10451677;28;20045;-69
2022/02/16 14:53:16;;;;;;;0.10;0.10;;;;;;;10.71;100.00;98810.09;10451695;28;20025;-70
2022/02/16 14:58:20;;;;;;;0.10;0.10;;;;;;;10.73;100.00;98795.53;10451586;28;20029;-69
2022/02/16 15:03:20;;;;;;;0.00;0.00;;;;;;;10.73;100.00;98781.41;10451027;28;20028;-70
2022/02/16 15:08:21;;;;;;;0.10;0.10;;;;;;;10.74;100.00;98788.38;10450684;28;20031;-69
2022/02/16 15:13:21;;;;;;;0.10;0.10;;;;;;;10.72;100.00;98751.31;10425769;28;20033;-69
2022/02/16 15:18:22;;;;;;;0.10;0.10;;;;;;;10.70;100.00;98724.06;10450520;28;20021;-70
2022/02/16 15:23:23;;;;;;;0.10;0.10;;;;;;;10.72;100.00;98727.34;10450323;28;20021;-70
2022/02/16 15:28:24;;;;;;;0.08;0.08;;;;;;;10.74;100.00;98701.31;10450292;28;20021;-70
2022/02/16 15:33:24;;;;;;;0.10;0.10;;;;;;;10.68;100.00;98727.97;10450043;28;20029;-70
2022/02/16 15:38:25;;;;;;;0.10;0.10;;;;;;;10.71;100.00;98751.53;10450077;28;20021;-70
2022/02/16 15:43:26;;;;;;;0.00;0.00;;;;;;;10.73;100.00;98798.19;10434195;28;20028;-70
2022/02/16 15:48:28;;;;;;;0.10;0.10;;;;;;;10.73;100.00;98808.84;10435762;28;20496;-70
2022/02/16 15:53:28;;;;;;;0.10;0.10;;;;;;;10.74;100.00;98815.81;10408902;28;20029;-70
2022/02/16 15:58:29;;;;;;;0.10;0.10;;;;;;;10.71;100.00;98800.28;10408304;28;20056;-70
2022/02/16 16:03:30;;;;;;;0.10;0.10;;;;;;;10.71;100.00;98804.78;10408720;28;20029;-70
2022/02/16 16:08:30;;;;;;;0.10;0.10;;;;;;;10.76;100.00;98789.81;10408129;28;20392;-70
2022/02/16 16:13:30;;;;;;;0.00;0.00;;;;;;;10.73;100.00;98808.84;10423955;28;20024;-70
2022/02/16 16:18:32;;;;;;;0.00;0.00;;;;;;;10.68;100.00;98800.69;10449243;28;20017;-70
2022/02/16 16:23:32;;;;;;;0.10;0.10;;;;;;;10.65;100.00;98801.09;10448962;28;20017;-70
2022/02/16 16:28:33;;;;;;;0.10;0.10;;;;;;;10.66;100.00;98794.75;10443931;28;20017;-70
2022/02/16 16:33:33;;;;;;;0.00;0.00;;;;;;;10.67;100.00;98777.72;10449032;28;20339;-71
2022/02/16 16:38:34;;;;;;;0.00;0.00;;;;;;;10.67;100.00;98744.97;10448449;28;20013;-71
2022/02/16 16:43:34;;;;;;;0.10;0.10;;;;;;;10.67;100.00;98702.38;10432573;28;20426;-71
2022/02/16 16:48:34;;;;;;;0.10;0.10;;;;;;;10.71;100.00;98693.75;10448766;28;20394;-71
2022/02/16 16:53:35;;;;;;;0.08;0.08;;;;;;;10.68;100.00;98739.44;10449062;28;20295;-71
2022/02/16 16:58:35;;;;;;;0.00;0.00;;;;;;;10.63;100.00;98715.28;10448568;28;20385;-71
2022/02/16 17:03:36;;;;;;;0.10;0.10;;;;;;;10.63;100.00;98694.00;10428131;28;20620;-71
2022/02/16 17:08:36;;;;;;;0.00;0.00;;;;;;;10.58;100.00;98696.47;10407082;28;20128;-71
2022/02/16 17:13:36;;;;;;;0.10;0.10;;;;;;;10.52;100.00;98698.13;10424176;28;20074;-71
2022/02/16 17:18:37;;;;;;;0.10;0.10;;;;;;;10.50;100.00;98676.25;10409459;22;20041;-71
2022/02/16 17:23:37;;;;;;;0.10;0.10;;;;;;;10.43;100.00;98662.94;10383273;28;20022;-71
2022/02/16 17:28:37;;;;;;;0.10;0.10;;;;;;;10.41;100.00;98645.53;10392820;28;20840;-71
2022/02/16 17:33:38;;;;;;;0.10;0.10;;;;;;;10.36;100.00;98640.88;10378022;28;20392;-70
2022/02/16 17:38:39;;;;;;;0.10;0.10;;;;;;;10.32;100.00;98668.09;10406182;28;20257;-71
2022/02/16 17:43:39;;;;;;;0.10;0.10;;;;;;;10.31;100.00;98698.41;10391683;28;20025;-70
2022/02/16 17:48:40;;;;;;;0.10;0.10;;;;;;;10.27;100.00;98702.50;10403274;28;20480;-70
2022/02/16 17:53:40;;;;;;;0.10;0.10;;;;;;;10.17;100.00;98708.22;10372823;28;20477;-69
2022/02/16 17:58:40;;;;;;;0.10;0.10;;;;;;;10.05;100.00;98688.63;10372190;28;20048;-68
2022/02/16 18:03:41;;;;;;;0.10;0.10;;;;;;;9.97;100.00;98698.44;10372306;28;20018;-69
2022/02/16 18:08:41;;;;;;;0.10;0.10;;;;;;;9.86;100.00;98676.97;10377680;28;20032;-69
2022/02/16 18:13:42;;;;;;;0.10;0.10;;;;;;;9.78;100.00;98630.19;10382419;28;20072;-70
2022/02/16 18:18:43;;;;;;;0.00;0.00;;;;;;;9.69;100.00;98636.75;10371919;28;20101;-69
2022/02/16 18:23:43;;;;;;;0.10;0.10;;;;;;;9.63;100.00;98616.28;10371616;28;20072;-69
2022/02/16 18:28:44;;;;;;;0.00;0.00;;;;;;;9.55;100.00;98597.91;10377035;28;20022;-69
2022/02/16 18:33:46;;;;;;;0.10;0.10;;;;;;;9.50;100.00;98558.66;10395272;28;20086;-70
2022/02/16 18:38:47;;;;;;;0.10;0.10;;;;;;;9.43;100.00;98507.38;10402609;28;20029;-70
2022/02/16 18:43:49;;;;;;;0.10;0.10;;;;;;;9.38;100.00;98501.88;10390983;28;20028;-70
2022/02/16 18:48:50;;;;;;;0.10;0.10;;;;;;;9.32;100.00;98461.00;10410610;28;20021;-70
2022/02/16 18:53:50;;;;;;;0.00;0.00;;;;;;;9.30;100.00;98452.41;10374967;28;20022;-70
2022/02/16 18:58:51;;;;;;;0.10;0.10;;;;;;;9.28;100.00;98434.06;10368699;28;20017;-70
2022/02/16 19:03:52;;;;;;;0.00;0.00;;;;;;;9.22;100.00;98394.22;10397336;28;20032;-70
2022/02/16 19:08:53;;;;;;;0.10;0.10;;;;;;;9.16;100.00;98356.06;10401018;28;20017;-70
2022/02/16 19:13:53;;;;;;;0.10;0.10;;;;;;;9.13;100.00;98327.22;10395194;28;20436;-70
2022/02/16 19:18:53;;;;;;;0.10;0.10;;;;;;;9.12;100.00;98279.66;10384316;28;20021;-70
2022/02/16 19:23:53;;;;;;;0.10;0.10;;;;;;;9.11;100.00;98283.34;10369085;28;20397;-69
2022/02/16 19:28:54;;;;;;;0.00;0.00;;;;;;;9.11;100.00;98270.06;10367560;28;20029;-69
2022/02/16 19:33:54;;;;;;;0.10;0.10;;;;;;;9.10;100.00;98287.81;10381182;28;20080;-70
2022/02/16 19:38:54;;;;;;;0.00;0.00;;;;;;;9.10;100.00;98252.47;10407958;28;20013;-70
2022/02/16 19:43:55;;;;;;;0.10;0.10;;;;;;;9.07;100.00;98220.03;10390935;28;20384;-69
2022/02/16 19:48:55;;;;;;;0.00;0.00;;;;;;;9.06;100.00;98266.19;10378963;28;20476;-71
2022/02/16 19:53:55;;;;;;;0.10;0.10;;;;;;;9.09;100.00;98245.56;10399439;28;20652;-68
2022/02/16 19:58:57;;;;;;;0.00;0.00;;;;;;;9.18;100.00;98217.72;10381986;28;20259;-71
2022/02/16 20:03:58;;;;;;;0.10;0.10;;;;;;;9.21;100.00;98178.25;10367967;28;20377;-67
2022/02/16 20:08:58;;;;;;;0.10;0.10;;;;;;;9.23;100.00;98149.66;10407710;28;20468;-70
2022/02/16 20:13:59;;;;;;;0.00;0.00;;;;;;;9.26;100.00;98141.25;10387562;28;20026;-72
2022/02/16 20:18:59;;;;;;;0.10;0.10;;;;;;;9.29;100.00;98124.88;10405224;28;20111;-70
2022/02/16 20:23:59;;;;;;;0.10;0.10;;;;;;;9.37;100.00;98104.41;10376459;28;20018;-70
2022/02/16 20:29:00;;;;;;;0.00;0.00;;;;;;;9.44;100.00;98081.22;10377502;28;20016;-70
2022/02/16 20:34:00;;;;;;;0.10;0.10;;;;;;;9.47;100.00;98055.03;10382776;28;20025;-70
2022/02/16 20:39:01;;;;;;;0.10;0.10;;;;;;;9.55;100.00;98040.66;10367015;28;20025;-70
2022/02/16 20:44:02;;;;;;;0.00;0.00;;;;;;;9.64;100.00;98026.03;10385310;28;20026;-71
2022/02/16 20:49:04;;;;;;;0.10;0.10;;;;;;;9.68;100.00;97997.16;10407319;28;20020;-71
2022/02/16 20:54:06;;;;;;;0.10;0.10;;;;;;;9.76;100.00;97996.88;10399233;28;20025;-70
2022/02/16 20:59:06;;;;;;;0.10;0.10;;;;;;;9.78;100.00;97968.22;10410851;28;20025;-70
2022/02/16 21:04:07;;;;;;;0.10;0.10;;;;;;;9.84;100.00;97947.91;10414881;28;20079;-70
2022/02/16 21:09:08;;;;;;;0.10;0.10;;;;;;;9.91;100.00;97938.78;10391102;28;20026;-69
2022/02/16 21:14:08;;;;;;;0.10;0.10;;;;;;;10.00;100.00;97930.50;10400272;28;20099;-70
2022/02/16 21:19:08;;;;;;;0.10;0.10;;;;;;;11.13;100.00;97937.50;10414622;28;20507;-70
2022/02/16 21:24:09;;;;;;;0.10;0.10;;;;;;;10.91;100.00;97928.47;10400332;28;20032;-70
2022/02/16 21:29:09;;;;;;;0.10;0.10;;;;;;;10.23;100.00;97916.47;10373178;28;20054;-70
2022/02/16 21:34:09;;;;;;;0.10;0.10;;;;;;;10.39;100.00;97951.25;10373731;28;20030;-70
2022/02/16 21:39:10;;;;;;;0.10;0.10;;;;;;;10.52;100.00;97938.75;10383857;28;20026;-70
2022/02/16 21:44:10;;;;;;;0.10;0.10;;;;;;;10.56;100.00;97946.06;10396108;28;20043;-69
2022/02/16 21:49:11;;;;;;;0.10;0.10;;;;;;;10.58;100.00;97959.13;10412964;28;20307;-70
2022/02/16 21:54:11;;;;;;;0.10;0.10;;;;;;;10.51;100.00;97961.09;10381867;28;20507;-71
2022/02/16 21:59:13;;;;;;;0.10;0.10;;;;;;;10.42;100.00;97990.69;10375919;28;20428;-70
2022/02/16 22:04:14;;;;;;;0.10;0.10;;;;;;;10.30;100.00;97989.84;10371975;28;20086;-70
2022/02/16 22:09:14;;;;;;;0.00;0.00;;;;;;;10.09;100.00;97969.84;10385343;28;20060;-69
2022/02/16 22:14:15;;;;;;;0.05;0.05;;;;;;;9.96;100.00;98016.03;10385622;28;20022;-70
2022/02/16 22:19:15;;;;;;;0.10;0.10;;;;;;;9.79;100.00;98036.28;10370181;28;20026;-70
2022/02/16 22:24:16;;;;;;;0.10;0.10;;;;;;;9.61;100.00;98012.38;10371339;28;20396;-69
2022/02/16 22:29:17;;;;;;;0.10;0.10;;;;;;;9.48;100.00;97992.06;10376118;28;20021;-69
2022/02/16 22:34:17;;;;;;;0.10;0.10;;;;;;;9.37;100.00;98022.84;10370488;28;20091;-69
2022/02/16 22:39:17;;;;;;;0.10;0.10;;;;;;;9.29;100.00;98021.28;10369348;28;20021;-70
2022/02/16 22:44:19;;;;;;;0.10;0.10;;;;;;;9.23;100.00;98019.50;10392455;28;20026;-70
2022/02/16 22:49:19;;;;;;;0.10;0.10;;;;;;;9.18;100.00;98045.91;10392989;28;20018;-70
2022/02/16 22:54:19;;;;;;;0.10;0.10;;;;;;;9.17;100.00;98043.47;10370182;28;20037;-69
2022/02/16 22:59:20;;;;;;;0.10;0.10;;;;;;;9.26;100.00;98050.13;10390663;28;20033;-70
2022/02/16 23:04:20;;;;;;;0.00;0.00;;;;;;;9.27;100.00;98038.47;10378131;28;20026;-70
2022/02/16 23:14:39;;;;;;;0.00;0.00;;;;;;;9.15;100.00;98050.84;10392542;28;20735;-71
2022/02/16 23:19:40;;;;;;;0.10;0.10;;;;;;;9.11;100.00;98061.09;10422934;22;20040;-65